createdAt,value
2023-01-22T00:00:06.801Z,15.38
2023-01-22T00:02:36.481Z,15.23
2023-01-22T00:05:04.795Z,14.25
2023-01-22T00:07:31.736Z,17.63
2023-01-22T00:09:59.983Z,15.20
2023-01-22T00:12:27.614Z,15.18
2023-01-22T00:14:54.358Z,15.50
2023-01-22T00:17:21.162Z,14.82
2023-01-22T00:19:47.926Z,15.65
2023-01-22T00:22:14.615Z,15.95
2023-01-22T00:24:41.277Z,16.40
2023-01-22T00:27:07.954Z,16.15
2023-01-22T00:29:34.968Z,16.88
2023-01-22T00:32:01.960Z,15.70
2023-01-22T00:34:28.926Z,16.13
2023-01-22T00:36:56.232Z,15.25
2023-01-22T00:39:22.889Z,17.60
2023-01-22T00:41:49.933Z,16.80
2023-01-22T00:44:16.685Z,15.52
2023-01-22T00:46:43.314Z,17.92
2023-01-22T00:49:10.018Z,15.75
2023-01-22T00:51:39.247Z,15.23
2023-01-22T00:54:05.931Z,16.08
2023-01-22T00:56:32.632Z,18.23
2023-01-22T00:58:59.478Z,17.42
2023-01-22T01:01:26.169Z,17.30
2023-01-22T01:03:52.844Z,16.52
2023-01-22T01:06:21.653Z,15.07
2023-01-22T01:08:49.056Z,15.88
2023-01-22T01:11:19.347Z,15.75
2023-01-22T01:13:46.086Z,17.23
2023-01-22T01:16:18.792Z,15.38
2023-01-22T01:18:46.000Z,15.93
2023-01-22T01:21:13.334Z,15.70
2023-01-22T01:23:40.044Z,16.67
2023-01-22T01:26:08.014Z,15.90
2023-01-22T01:28:36.547Z,15.65
2023-01-22T01:31:08.560Z,15.30
2023-01-22T01:33:35.400Z,17.30
2023-01-22T01:36:07.386Z,16.02
2023-01-22T01:38:34.383Z,15.68
2023-01-22T01:41:01.186Z,16.92
2023-01-22T01:43:28.503Z,16.88
2023-01-22T01:45:57.655Z,16.30
2023-01-22T01:48:31.679Z,15.35
2023-01-22T01:51:04.000Z,16.10
2023-01-22T01:53:31.726Z,16.95
2023-01-22T01:56:00.923Z,16.20
2023-01-22T01:58:31.790Z,15.20
2023-01-22T02:01:05.282Z,15.75
2023-01-22T02:03:31.995Z,16.50
2023-01-22T02:05:58.674Z,15.15
2023-01-22T02:08:25.453Z,15.02
2023-01-22T02:10:53.930Z,16.20
2023-01-22T02:13:27.669Z,16.83
2023-01-22T02:15:54.716Z,16.27
2023-01-22T02:18:21.454Z,14.20
2023-01-22T02:20:59.500Z,15.77
2023-01-22T02:23:27.504Z,15.13
2023-01-22T02:25:54.254Z,15.15
2023-01-22T02:28:21.010Z,17.30
2023-01-22T02:30:47.662Z,16.30
2023-01-22T02:33:14.401Z,16.27
2023-01-22T02:35:41.137Z,14.85
2023-01-22T02:38:07.824Z,16.13
2023-01-22T02:40:34.599Z,15.15
2023-01-22T02:43:01.767Z,15.52
2023-01-22T02:45:28.488Z,15.23
2023-01-22T02:47:55.112Z,16.70
2023-01-22T02:50:21.771Z,15.07
2023-01-22T02:52:48.387Z,16.90
2023-01-22T02:55:15.131Z,15.23
2023-01-22T02:57:41.796Z,16.50
2023-01-22T03:00:09.223Z,15.70
2023-01-22T03:02:35.852Z,15.10
2023-01-22T03:05:05.420Z,15.02
2023-01-22T03:07:42.330Z,16.63
2023-01-22T03:10:15.412Z,16.80
2023-01-22T03:13:01.321Z,16.02
2023-01-22T03:15:47.039Z,15.50
2023-01-22T03:18:33.125Z,14.93
2023-01-22T03:21:21.180Z,16.60
2023-01-22T03:23:50.651Z,14.15
2023-01-22T03:26:18.241Z,16.10
2023-01-22T03:28:46.088Z,17.48
2023-01-22T03:31:14.677Z,15.68
2023-01-22T03:33:42.115Z,16.10
2023-01-22T03:36:12.166Z,17.42
2023-01-22T03:38:38.782Z,15.80
2023-01-22T03:41:08.233Z,16.13
2023-01-22T03:43:35.055Z,14.98
2023-01-22T03:46:15.601Z,15.82
2023-01-22T03:48:43.251Z,16.17
2023-01-22T03:51:15.157Z,16.70
2023-01-22T03:53:43.854Z,16.20
2023-01-22T03:56:16.813Z,17.33
2023-01-22T03:58:44.001Z,16.02
2023-01-22T04:01:13.166Z,18.40
2023-01-22T04:03:40.669Z,15.80
2023-01-22T04:06:09.480Z,16.10
2023-01-22T04:08:37.209Z,15.25
2023-01-22T04:11:04.066Z,14.82
2023-01-22T04:13:32.252Z,16.77
2023-01-22T04:15:59.064Z,15.48
2023-01-22T04:18:25.823Z,15.00
2023-01-22T04:20:52.912Z,16.38
2023-01-22T04:23:21.535Z,14.75
2023-01-22T04:25:48.792Z,14.05
2023-01-22T04:28:16.636Z,16.25
2023-01-22T04:30:45.324Z,15.25
2023-01-22T04:33:12.597Z,16.77
2023-01-22T04:35:39.975Z,14.70
2023-01-22T04:38:07.721Z,16.02
2023-01-22T04:40:34.307Z,15.40
2023-01-22T04:43:05.338Z,16.00
2023-01-22T04:45:32.159Z,15.65
2023-01-22T04:47:59.881Z,15.23
2023-01-22T04:50:32.210Z,17.45
2023-01-22T04:53:00.402Z,16.15
2023-01-22T04:55:27.982Z,16.60
2023-01-22T04:57:56.420Z,15.27
2023-01-22T05:00:24.579Z,15.45
2023-01-22T05:02:55.475Z,13.80
2023-01-22T05:05:22.230Z,14.40
2023-01-22T05:07:48.845Z,17.05
2023-01-22T05:10:16.181Z,16.27
2023-01-22T05:12:42.939Z,16.83
2023-01-22T05:15:23.141Z,14.63
2023-01-22T05:17:50.624Z,15.93
2023-01-22T05:20:17.670Z,15.75
2023-01-22T05:22:44.873Z,15.90
2023-01-22T05:25:12.092Z,16.70
2023-01-22T05:27:38.785Z,16.88
2023-01-22T05:30:06.400Z,18.02
2023-01-22T05:32:33.028Z,15.80
2023-01-22T05:34:59.654Z,15.90
2023-01-22T05:37:26.304Z,15.93
2023-01-22T05:39:52.939Z,16.10
2023-01-22T05:42:20.911Z,17.17
2023-01-22T05:44:47.713Z,16.70
2023-01-22T05:47:14.358Z,15.25
2023-01-22T05:49:41.670Z,16.58
2023-01-22T05:52:10.824Z,16.70
2023-01-22T05:54:39.770Z,15.43
2023-01-22T05:57:07.100Z,18.90
2023-01-22T05:59:34.034Z,17.58
2023-01-22T06:02:00.882Z,17.10
2023-01-22T06:04:27.609Z,15.63
2023-01-22T06:06:54.346Z,16.83
2023-01-22T06:09:21.043Z,17.77
2023-01-22T06:11:47.674Z,19.00
2023-01-22T06:14:14.343Z,18.30
2023-01-22T06:16:40.936Z,17.73
2023-01-22T06:19:07.858Z,19.52
2023-01-22T06:21:34.480Z,17.08
2023-01-22T06:24:01.096Z,17.42
2023-01-22T06:26:27.688Z,17.90
2023-01-22T06:28:55.232Z,17.02
2023-01-22T06:31:22.044Z,17.48
2023-01-22T06:33:48.894Z,19.42
2023-01-22T06:36:15.593Z,19.02
2023-01-22T06:38:42.172Z,17.08
2023-01-22T06:41:09.568Z,18.08
2023-01-22T06:43:37.671Z,18.00
2023-01-22T06:46:04.726Z,17.23
2023-01-22T06:48:31.316Z,18.48
2023-01-22T06:50:59.680Z,16.40
2023-01-22T06:53:26.741Z,18.55
2023-01-22T06:55:53.424Z,17.95
2023-01-22T06:58:20.041Z,18.17
2023-01-22T07:00:46.756Z,16.80
2023-01-22T07:03:15.259Z,17.33
2023-01-22T07:05:42.391Z,18.63
2023-01-22T07:08:13.219Z,18.40
2023-01-22T07:10:40.117Z,19.17
2023-01-22T07:13:07.952Z,20.08
2023-01-22T07:15:34.570Z,18.25
2023-01-22T07:18:01.328Z,17.27
2023-01-22T07:20:27.943Z,18.33
2023-01-22T07:22:59.158Z,17.35
2023-01-22T07:25:27.610Z,16.48
2023-01-22T07:28:04.066Z,15.20
2023-01-22T07:30:31.223Z,16.20
2023-01-22T07:33:00.277Z,16.67
2023-01-22T07:35:27.156Z,16.52
2023-01-22T07:37:55.376Z,17.05
2023-01-22T07:40:24.242Z,17.13
2023-01-22T07:42:51.837Z,17.60
2023-01-22T07:45:22.364Z,17.05
2023-01-22T07:47:57.486Z,15.90
2023-01-22T07:50:27.030Z,17.02
2023-01-22T07:52:53.851Z,15.25
2023-01-22T07:55:20.494Z,17.40
2023-01-22T07:57:47.319Z,18.40
2023-01-22T08:00:16.195Z,15.90
2023-01-22T08:02:43.108Z,16.90
2023-01-22T08:05:13.671Z,17.58
2023-01-22T08:07:40.342Z,17.08
2023-01-22T08:10:07.714Z,20.17
2023-01-22T08:12:36.557Z,36.90
2023-01-22T08:15:03.547Z,116.25
2023-01-22T08:17:30.224Z,163.63
2023-01-22T08:19:56.875Z,317.55
2023-01-22T08:22:23.466Z,318.15
2023-01-22T08:24:50.078Z,353.65
2023-01-22T08:27:16.905Z,110.45
2023-01-22T08:29:43.541Z,53.17
2023-01-22T08:32:10.180Z,72.78
2023-01-22T08:34:36.892Z,45.80
2023-01-22T08:37:03.509Z,48.53
2023-01-22T08:39:30.082Z,68.40
2023-01-22T08:41:57.739Z,39.08
2023-01-22T08:44:25.385Z,27.08
2023-01-22T08:46:52.392Z,18.65
2023-01-22T08:49:21.251Z,17.63
2023-01-22T08:51:47.889Z,17.15
2023-01-22T08:54:14.547Z,20.20
2023-01-22T08:56:41.136Z,17.25
2023-01-22T08:59:07.746Z,16.08
2023-01-22T09:01:35.066Z,18.83
2023-01-22T09:04:01.622Z,14.32
2023-01-22T09:06:28.245Z,16.33
2023-01-22T09:08:54.886Z,16.02
2023-01-22T09:11:21.507Z,18.30
2023-01-22T09:13:48.136Z,14.98
2023-01-22T09:16:14.866Z,13.63
2023-01-22T09:18:41.508Z,23.58
2023-01-22T09:21:08.511Z,15.65
2023-01-22T09:23:35.191Z,14.43
2023-01-22T09:26:01.901Z,16.50
2023-01-22T09:28:28.517Z,15.60
2023-01-22T09:30:55.190Z,14.98
2023-01-22T09:33:21.821Z,17.60
2023-01-22T09:35:48.458Z,15.15
2023-01-22T09:38:15.433Z,15.60
2023-01-22T09:40:57.649Z,20.13
2023-01-22T09:43:49.425Z,23.63
2023-01-22T09:46:22.372Z,18.40
2023-01-22T09:48:53.596Z,28.17
2023-01-22T09:51:22.282Z,16.23
2023-01-22T09:53:59.732Z,17.08
2023-01-22T09:56:33.358Z,21.63
2023-01-22T09:59:03.345Z,18.75
2023-01-22T10:01:30.740Z,16.27
2023-01-22T10:04:03.382Z,15.02
2023-01-22T10:06:30.275Z,31.98
2023-01-22T10:09:12.521Z,15.60
2023-01-22T10:11:39.621Z,16.02
2023-01-22T10:14:09.341Z,14.07
2023-01-22T10:16:37.284Z,14.02
2023-01-22T10:19:23.393Z,14.18
2023-01-22T10:21:58.248Z,16.13
2023-01-22T10:24:24.989Z,16.17
2023-01-22T10:26:54.619Z,14.07
2023-01-22T10:29:33.450Z,14.32
2023-01-22T10:32:21.459Z,15.57
2023-01-22T10:35:01.406Z,14.00
2023-01-22T10:37:29.272Z,13.77
2023-01-22T10:39:58.737Z,13.77
2023-01-22T10:42:29.543Z,14.27
2023-01-22T10:45:07.889Z,14.80
2023-01-22T10:47:34.688Z,13.88
2023-01-22T10:50:12.321Z,13.80
2023-01-22T10:52:42.350Z,13.75
2023-01-22T10:55:22.760Z,14.18
2023-01-22T10:57:55.698Z,15.60
2023-01-22T11:00:51.982Z,14.52
2023-01-22T11:03:39.230Z,18.17
2023-01-22T11:06:17.228Z,15.93
2023-01-22T11:09:00.738Z,15.15
2023-01-22T11:11:34.779Z,15.90
2023-01-22T11:14:15.376Z,16.25
2023-01-22T11:16:43.191Z,15.73
2023-01-22T11:19:18.133Z,15.23
2023-01-22T11:21:54.898Z,17.65
2023-01-22T11:24:29.448Z,17.05
2023-01-22T11:27:42.613Z,15.52
2023-01-22T11:30:40.336Z,15.20
2023-01-22T11:33:30.050Z,15.35
2023-01-22T11:36:21.464Z,16.20
2023-01-22T11:38:56.419Z,15.35
2023-01-22T11:42:05.708Z,19.55
2023-01-22T11:45:18.581Z,16.88
2023-01-22T11:48:03.901Z,16.27
2023-01-22T11:50:40.601Z,17.70
2023-01-22T11:53:25.821Z,17.33
2023-01-22T11:56:10.665Z,17.10
2023-01-22T11:59:09.515Z,17.00
2023-01-22T12:01:48.174Z,18.77
2023-01-22T12:04:43.188Z,17.15
2023-01-22T12:07:26.769Z,17.25
2023-01-22T12:10:47.635Z,16.92
2023-01-22T12:13:57.411Z,17.17
2023-01-22T12:16:37.170Z,17.65
2023-01-22T12:19:20.540Z,17.65
2023-01-22T12:22:11.893Z,16.25
2023-01-22T12:25:00.609Z,16.05
2023-01-22T12:27:33.525Z,17.83
2023-01-22T12:30:15.973Z,17.15
2023-01-22T12:32:49.266Z,16.58
2023-01-22T12:35:20.958Z,16.88
2023-01-22T12:38:16.302Z,16.70
2023-01-22T12:41:36.430Z,15.68
2023-01-22T12:44:31.657Z,16.25
2023-01-22T12:47:32.318Z,14.68
2023-01-22T12:49:58.911Z,14.30
2023-01-22T12:52:48.054Z,16.17
2023-01-22T12:55:35.089Z,15.95
2023-01-22T12:58:02.550Z,16.58
2023-01-22T13:00:39.023Z,15.73
2023-01-22T13:03:33.090Z,17.20
2023-01-22T13:06:02.603Z,15.93
2023-01-22T13:08:43.736Z,14.80
2023-01-22T13:11:26.670Z,17.05
2023-01-22T13:14:15.990Z,15.45
2023-01-22T13:16:51.757Z,14.40
2023-01-22T13:19:28.161Z,16.70
2023-01-22T13:21:58.986Z,16.83
2023-01-22T13:24:25.656Z,15.07
2023-01-22T13:26:54.981Z,16.67
2023-01-22T13:29:34.027Z,15.68
2023-01-22T13:32:03.522Z,16.75
2023-01-22T13:34:30.684Z,15.63
2023-01-22T13:36:58.144Z,16.42
2023-01-22T13:39:30.127Z,16.92
2023-01-22T13:41:59.699Z,16.42
2023-01-22T13:44:32.438Z,15.98
2023-01-22T13:46:59.808Z,16.92
2023-01-22T13:49:28.945Z,16.38
2023-01-22T13:51:59.222Z,18.13
2023-01-22T13:54:43.106Z,16.92
2023-01-22T13:57:14.519Z,15.98
2023-01-22T14:00:01.249Z,18.20
2023-01-22T14:02:34.607Z,17.10
2023-01-22T14:05:02.513Z,17.05
2023-01-22T14:07:32.032Z,16.80
2023-01-22T14:10:12.256Z,18.50
2023-01-22T14:12:38.969Z,17.75
2023-01-22T14:15:21.225Z,19.23
2023-01-22T14:17:49.810Z,17.50
2023-01-22T14:20:17.685Z,21.08
2023-01-22T14:22:44.599Z,18.90
2023-01-22T14:25:11.178Z,18.02
2023-01-22T14:27:44.275Z,18.55
2023-01-22T14:30:14.612Z,19.80
2023-01-22T14:32:43.203Z,15.25
2023-01-22T14:35:19.135Z,16.80
2023-01-22T14:37:46.393Z,18.27
2023-01-22T14:40:14.656Z,17.20
2023-01-22T14:42:41.314Z,18.05
2023-01-22T14:45:09.369Z,18.52
2023-01-22T14:47:36.135Z,18.45
2023-01-22T14:50:03.654Z,19.67
2023-01-22T14:52:30.242Z,19.35
2023-01-22T14:54:56.948Z,19.10
2023-01-22T14:57:25.390Z,18.58
2023-01-22T14:59:52.170Z,17.92
2023-01-22T15:02:18.991Z,19.25
2023-01-22T15:04:45.793Z,19.35
2023-01-22T15:07:12.434Z,18.65
2023-01-22T15:09:39.655Z,19.23
2023-01-22T15:12:07.017Z,19.85
2023-01-22T15:14:33.665Z,19.25
2023-01-22T15:17:00.483Z,20.67
2023-01-22T15:19:27.171Z,19.58
2023-01-22T15:21:53.931Z,18.83
2023-01-22T15:24:20.681Z,21.00
2023-01-22T15:26:47.310Z,19.45
2023-01-22T15:29:14.760Z,20.10
2023-01-22T15:31:41.718Z,21.33
2023-01-22T15:34:08.743Z,20.27
2023-01-22T15:36:36.937Z,20.17
2023-01-22T15:39:03.635Z,19.80
2023-01-22T15:41:32.328Z,21.27
2023-01-22T15:44:01.257Z,19.10
2023-01-22T15:46:30.763Z,21.25
2023-01-22T15:48:58.674Z,20.80
2023-01-22T15:51:26.350Z,22.17
2023-01-22T15:54:00.841Z,20.35
2023-01-22T15:56:30.258Z,21.25
2023-01-22T15:58:57.774Z,21.35
2023-01-22T16:01:25.860Z,20.63
2023-01-22T16:03:53.330Z,22.48
2023-01-22T16:06:25.866Z,21.02
2023-01-22T16:11:21.146Z,20.58
2023-01-22T16:13:47.794Z,21.02
2023-01-22T16:16:26.071Z,21.85
2023-01-22T16:18:53.318Z,21.38
2023-01-22T16:21:21.327Z,21.98
2023-01-22T16:23:48.780Z,21.25
2023-01-22T16:26:20.783Z,22.85
2023-01-22T16:28:49.609Z,22.88
2023-01-22T16:31:19.185Z,23.88
2023-01-22T16:33:47.998Z,22.70
2023-01-22T16:36:17.369Z,24.70
2023-01-22T16:38:44.503Z,24.13
2023-01-22T16:41:25.559Z,23.45
2023-01-22T16:44:01.943Z,23.10
2023-01-22T16:46:31.489Z,22.30
2023-01-22T16:49:01.062Z,21.38
2023-01-22T16:51:33.438Z,23.33
2023-01-22T16:54:00.129Z,22.48
2023-01-22T16:56:26.677Z,21.83
2023-01-22T16:58:53.302Z,22.45
2023-01-22T17:01:20.868Z,23.52
2023-01-22T17:03:47.678Z,23.83
2023-01-22T17:06:23.118Z,22.13
2023-01-22T17:08:51.012Z,19.70
2023-01-22T17:11:18.260Z,22.52
2023-01-22T17:13:45.355Z,21.05
2023-01-22T17:16:12.973Z,22.65
2023-01-22T17:18:39.841Z,21.88
2023-01-22T17:21:08.280Z,26.50
2023-01-22T17:23:35.103Z,22.08
2023-01-22T17:26:06.052Z,23.80
2023-01-22T17:28:35.467Z,24.48
2023-01-22T17:31:06.866Z,22.63
2023-01-22T17:33:33.948Z,23.48
2023-01-22T17:36:00.945Z,25.98
2023-01-22T17:38:29.099Z,23.80
2023-01-22T17:40:56.969Z,24.20
2023-01-22T17:43:24.339Z,26.98
2023-01-22T17:45:51.024Z,27.02
2023-01-22T17:48:17.645Z,27.80
2023-01-22T17:50:44.322Z,27.17
2023-01-22T17:53:11.047Z,21.50
2023-01-22T17:55:38.005Z,22.95
2023-01-22T17:58:04.627Z,23.60
2023-01-22T18:00:31.668Z,23.23
2023-01-22T18:02:58.329Z,22.75
2023-01-22T18:05:26.664Z,24.10
2023-01-22T18:07:53.229Z,24.25
2023-01-22T18:10:21.263Z,25.15
2023-01-22T18:12:49.132Z,22.75
2023-01-22T18:15:15.884Z,25.52
2023-01-22T18:17:42.809Z,24.63
2023-01-22T18:20:10.253Z,25.98
2023-01-22T18:22:36.871Z,26.38
2023-01-22T18:25:03.785Z,25.42
2023-01-22T18:27:30.399Z,24.60
2023-01-22T18:29:56.988Z,23.63
2023-01-22T18:32:24.330Z,23.35
2023-01-22T18:34:51.015Z,23.92
2023-01-22T18:37:17.654Z,23.90
2023-01-22T18:39:44.302Z,22.83
2023-01-22T18:42:10.894Z,24.30
2023-01-22T18:44:38.837Z,22.52
2023-01-22T18:47:11.025Z,24.75
2023-01-22T18:49:37.613Z,22.60
2023-01-22T18:52:04.256Z,24.08
2023-01-22T18:54:30.936Z,26.20
2023-01-22T18:56:57.584Z,24.40
2023-01-22T18:59:24.447Z,24.67
2023-01-22T19:01:51.851Z,22.35
2023-01-22T19:04:21.844Z,25.00
2023-01-22T19:06:53.490Z,26.23
2023-01-22T19:09:21.241Z,27.30
2023-01-22T19:11:49.685Z,28.88
2023-01-22T19:14:19.495Z,27.73
2023-01-22T19:16:48.859Z,28.25
2023-01-22T19:19:16.201Z,26.08
2023-01-22T19:21:47.135Z,24.88
2023-01-22T19:24:16.152Z,26.65
2023-01-22T19:26:46.437Z,26.08
2023-01-22T19:29:17.237Z,25.60
2023-01-22T19:31:48.360Z,25.27
2023-01-22T19:34:23.208Z,23.70
2023-01-22T19:36:52.532Z,26.73
2023-01-22T19:39:20.383Z,26.42
2023-01-22T19:41:47.260Z,24.20
2023-01-22T19:44:13.893Z,25.95
2023-01-22T19:46:40.926Z,25.08
2023-01-22T19:49:08.694Z,25.08
2023-01-22T19:51:35.683Z,23.25
2023-01-22T19:54:04.635Z,24.75
2023-01-22T19:56:34.394Z,24.13
2023-01-22T19:59:07.158Z,24.60
2023-01-22T20:01:35.075Z,25.13
2023-01-22T20:04:01.860Z,24.88
2023-01-22T20:06:28.612Z,24.45
2023-01-22T20:08:57.114Z,27.55
2023-01-22T20:11:24.664Z,26.70
2023-01-22T20:13:51.410Z,26.48
2023-01-22T20:16:21.913Z,24.25
2023-01-22T20:18:49.542Z,23.63
2023-01-22T20:21:21.284Z,25.55
2023-01-22T20:23:50.752Z,22.95
2023-01-22T20:26:19.036Z,24.80
2023-01-22T20:28:46.406Z,24.35
2023-01-22T20:31:17.343Z,25.73
2023-01-22T20:33:44.149Z,26.13
2023-01-22T20:36:15.097Z,24.98
2023-01-22T20:38:45.805Z,24.00
2023-01-22T20:41:14.065Z,24.58
2023-01-22T20:43:42.965Z,25.45
2023-01-22T20:46:22.812Z,23.83
2023-01-22T20:48:51.350Z,24.85
2023-01-22T20:51:24.522Z,26.92
2023-01-22T20:53:54.972Z,27.92
2023-01-22T20:56:25.477Z,25.52
2023-01-22T20:58:57.437Z,26.13
2023-01-22T21:01:24.910Z,24.58
2023-01-22T21:03:52.231Z,23.73
2023-01-22T21:06:20.748Z,24.73
2023-01-22T21:08:51.304Z,24.25
2023-01-22T21:11:22.190Z,24.35
2023-01-22T21:13:50.972Z,24.58
2023-01-22T21:16:23.192Z,26.08
2023-01-22T21:18:49.929Z,24.30
2023-01-22T21:21:19.756Z,23.80
2023-01-22T21:23:52.152Z,24.20
2023-01-22T21:26:22.965Z,26.00
2023-01-22T21:28:53.208Z,27.15
2023-01-22T21:31:21.650Z,29.05
2023-01-22T21:33:48.819Z,28.15
2023-01-22T21:36:18.404Z,25.52
2023-01-22T21:38:49.093Z,27.17
2023-01-22T21:41:17.688Z,25.25
2023-01-22T21:44:05.052Z,27.85
2023-01-22T21:46:38.978Z,25.85
2023-01-22T21:49:21.682Z,25.08
2023-01-22T21:54:25.016Z,21.88
2023-01-22T21:56:52.350Z,25.42
2023-01-22T21:59:19.456Z,27.08
2023-01-22T22:01:46.785Z,25.73
2023-01-22T22:04:15.019Z,26.35
2023-01-22T22:06:42.199Z,27.10
2023-01-22T22:09:17.549Z,25.40
2023-01-22T22:11:44.874Z,26.42
2023-01-22T22:14:12.712Z,25.60
2023-01-22T22:16:39.449Z,26.15
2023-01-22T22:19:07.535Z,25.80
2023-01-22T22:21:34.485Z,24.58
2023-01-22T22:24:01.227Z,25.83
2023-01-22T22:26:28.003Z,24.80
2023-01-22T22:28:54.812Z,24.75
2023-01-22T22:31:22.793Z,24.35
2023-01-22T22:33:52.221Z,24.10
2023-01-22T22:36:22.032Z,25.27
2023-01-22T22:38:48.970Z,24.45
2023-01-22T22:41:22.607Z,25.50
2023-01-22T22:43:53.415Z,23.27
2023-01-22T22:46:23.014Z,23.73
2023-01-22T22:48:50.775Z,25.77
2023-01-22T22:51:23.529Z,25.45
2023-01-22T22:53:55.805Z,24.50
2023-01-22T22:56:22.959Z,25.88
2023-01-22T22:58:49.674Z,26.23
2023-01-22T23:01:21.787Z,25.92
2023-01-22T23:03:48.896Z,25.55
2023-01-22T23:06:18.817Z,25.48
2023-01-22T23:08:52.294Z,25.55
2023-01-22T23:11:21.733Z,25.90
2023-01-22T23:13:52.142Z,25.08
2023-01-22T23:16:21.833Z,25.13
2023-01-22T23:18:51.249Z,24.63
2023-01-22T23:21:23.859Z,24.65
2023-01-22T23:23:51.988Z,23.40
2023-01-22T23:26:29.959Z,23.95
2023-01-22T23:28:58.690Z,25.13
2023-01-22T23:31:26.457Z,24.27
2023-01-22T23:33:54.975Z,24.45
2023-01-22T23:36:22.298Z,26.30
2023-01-22T23:38:49.348Z,26.00
2023-01-22T23:41:17.580Z,25.50
2023-01-22T23:43:44.688Z,24.15
2023-01-22T23:46:14.721Z,26.45
2023-01-22T23:48:41.882Z,26.17
2023-01-22T23:51:09.447Z,24.55
2023-01-22T23:53:37.645Z,25.83
2023-01-22T23:56:05.406Z,24.80
2023-01-22T23:58:33.068Z,24.38
